^^
Saratoga-Weather Station Historical Data
Daily Summary for May 11, 2020 Units:  Metric    English   Both
Daily Weekly Monthly Yearly Custom
  High: Low: Average:
Temperature: 21.6 °C 12.6 °C 16.9 °C
Dew Point: 14.1 °C 12 °C 12.9 °C
Humidity: 97% 57% 79%
Wind Speed: 16.3km/h 0km/h 2.1km/h
Wind Gust: 19.3km/h - -
Wind- - East
Pressure: 1011.2 hPa 1006.1 hPa -
Precipitation: 0.0 mm    
Historical Graphs
 
 
Tabular Data for May 11, 2020
Time Temperature Dew Point Pressure Wind Wind Speed Wind Gust Humidity Rainfall Rate (Hourly) solar
00:04 13.7 °C 13.1 °C 1011.2 hPa Calm     96% 0.0 mm 0 W/m2
00:09 13.7 °C 13.1 °C 1011.2 hPa Calm     96% 0.0 mm 0 W/m2
00:14 13.7 °C 13.1 °C 1011.2 hPa Calm     96% 0.0 mm 0 W/m2
00:19 13.7 °C 13.1 °C 1011.2 hPa Calm     96% 0.0 mm 0 W/m2
00:24 13.6 °C 12.8 °C 1011.2 hPa Calm   1.6 km/h 95% 0.0 mm 0 W/m2
00:30 13.6 °C 13 °C 1011.2 hPa Calm     96% 0.0 mm 0 W/m2
00:35 13.6 °C 13 °C 1011.2 hPa Calm     96% 0.0 mm 0 W/m2
00:40 13.6 °C 13 °C 1011.2 hPa Calm     96% 0.0 mm 0 W/m2
00:45 13.6 °C 13 °C 1010.8 hPa Calm     96% 0.0 mm 0 W/m2
00:50 13.6 °C 13 °C 1011.2 hPa Calm     96% 0.0 mm 0 W/m2
00:55 13.6 °C 13 °C 1011.2 hPa West 1.4 km/h 3.2 km/h 96% 0.0 mm 0 W/m2
01:00 13.6 °C 13 °C 1011.2 hPa Calm   1.6 km/h 96% 0.0 mm 0 W/m2
01:05 13.6 °C 13 °C 1010.8 hPa Calm     96% 0.0 mm 0 W/m2
01:10 13.7 °C 13.1 °C 1010.8 hPa Calm     96% 0.0 mm 0 W/m2
01:15 13.7 °C 13.1 °C 1010.8 hPa Calm     96% 0.0 mm 0 W/m2
01:20 13.7 °C 13.1 °C 1010.8 hPa Calm     96% 0.0 mm 0 W/m2
01:25 13.7 °C 13.1 °C 1010.8 hPa Calm     96% 0.0 mm 0 W/m2
01:30 13.6 °C 13 °C 1010.8 hPa Calm     96% 0.0 mm 0 W/m2
01:35 13.6 °C 13 °C 1010.8 hPa Calm   1.6 km/h 96% 0.0 mm 0 W/m2
01:40 13.6 °C 13 °C 1010.8 hPa Calm     96% 0.0 mm 0 W/m2
01:45 13.6 °C 13 °C 1010.8 hPa Calm   3.2 km/h 96% 0.0 mm 0 W/m2
01:50 13.5 °C 12.9 °C 1010.8 hPa East 3.2 km/h 3.2 km/h 96% 0.0 mm 0 W/m2
01:55 13.5 °C 12.9 °C 1010.8 hPa Calm     96% 0.0 mm 0 W/m2
02:00 13.5 °C 12.9 °C 1010.8 hPa Calm   3.2 km/h 96% 0.0 mm 0 W/m2
02:05 13.5 °C 12.9 °C 1010.8 hPa Calm     96% 0.0 mm 0 W/m2
02:10 13.6 °C 13 °C 1010.5 hPa Calm     96% 0.0 mm 0 W/m2
02:15 13.5 °C 12.9 °C 1010.5 hPa Calm     96% 0.0 mm 0 W/m2
02:20 13.5 °C 12.9 °C 1010.5 hPa Calm     96% 0.0 mm 0 W/m2
02:25 13.5 °C 12.9 °C 1010.5 hPa Calm     96% 0.0 mm 0 W/m2
02:30 13.5 °C 12.9 °C 1010.5 hPa Calm     96% 0.0 mm 0 W/m2
02:35 13.5 °C 12.9 °C 1010.5 hPa Calm   1.6 km/h 96% 0.0 mm 0 W/m2
02:40 13.4 °C 12.8 °C 1010.5 hPa Calm   1.6 km/h 96% 0.0 mm 0 W/m2
02:45 13.4 °C 12.8 °C 1010.2 hPa Calm   1.6 km/h 96% 0.0 mm 0 W/m2
02:50 13.4 °C 12.8 °C 1010.2 hPa ENE 1.4 km/h 1.6 km/h 96% 0.0 mm 0 W/m2
02:55 13.3 °C 12.7 °C 1010.2 hPa Calm     96% 0.0 mm 0 W/m2
03:00 13.3 °C 12.7 °C 1010.2 hPa Calm   3.2 km/h 96% 0.0 mm 0 W/m2
03:05 13.3 °C 12.7 °C 1010.2 hPa Calm     96% 0.0 mm 0 W/m2
03:10 13.2 °C 12.6 °C 1010.2 hPa Calm     96% 0.0 mm 0 W/m2
03:15 13.2 °C 12.6 °C 1010.2 hPa Calm     96% 0.0 mm 0 W/m2
03:20 13.2 °C 12.6 °C 1010.2 hPa Calm     96% 0.0 mm 0 W/m2
03:25 13.2 °C 12.6 °C 1010.2 hPa Calm     96% 0.0 mm 0 W/m2
03:30 13.1 °C 12.5 °C 1010.2 hPa Calm     96% 0.0 mm 0 W/m2
03:35 13.1 °C 12.5 °C 1010.2 hPa Calm     96% 0.0 mm 0 W/m2
03:40 13.1 °C 12.5 °C 1009.8 hPa Calm   1.6 km/h 96% 0.0 mm 0 W/m2
03:45 13.1 °C 12.5 °C 1009.8 hPa Calm   1.6 km/h 96% 0.0 mm 0 W/m2
03:50 13.1 °C 12.5 °C 1009.8 hPa Calm     96% 0.0 mm 0 W/m2
03:55 13 °C 12.4 °C 1009.8 hPa ESE 1.4 km/h 3.2 km/h 96% 0.0 mm 0 W/m2
04:00 12.9 °C 12.3 °C 1009.8 hPa Calm   1.6 km/h 96% 0.0 mm 0 W/m2
04:05 12.9 °C 12.3 °C 1009.8 hPa ESE 3.2 km/h 3.2 km/h 96% 0.0 mm 0 W/m2
04:10 12.8 °C 12.2 °C 1009.8 hPa Calm     96% 0.0 mm 0 W/m2
04:15 12.8 °C 12.2 °C 1009.8 hPa Calm     96% 0.0 mm 0 W/m2
04:20 12.8 °C 12.2 °C 1009.5 hPa Calm     96% 0.0 mm 0 W/m2
04:25 12.8 °C 12.2 °C 1009.5 hPa Calm   1.6 km/h 96% 0.0 mm 0 W/m2
04:30 12.8 °C 12.2 °C 1009.5 hPa Calm     96% 0.0 mm 0 W/m2
04:35 12.9 °C 12.3 °C 1009.5 hPa Calm   3.2 km/h 96% 0.0 mm 0 W/m2
04:40 12.9 °C 12.3 °C 1009.5 hPa Calm     96% 0.0 mm 0 W/m2
04:45 12.9 °C 12.3 °C 1009.5 hPa Calm   3.2 km/h 96% 0.0 mm 0 W/m2
04:50 12.8 °C 12.2 °C 1009.5 hPa Calm     96% 0.0 mm 0 W/m2
04:55 12.8 °C 12.2 °C 1009.5 hPa Calm     96% 0.0 mm 0 W/m2
05:00 12.8 °C 12.2 °C 1009.5 hPa Calm     96% 0.0 mm 0 W/m2
05:05 12.8 °C 12.2 °C 1009.5 hPa Calm     96% 0.0 mm 0 W/m2
05:10 12.8 °C 12.3 °C 1009.1 hPa Calm     97% 0.0 mm 0 W/m2
05:15 12.7 °C 12.2 °C 1009.1 hPa Calm     97% 0.0 mm 0 W/m2
05:20 12.7 °C 12.2 °C 1009.1 hPa Calm     97% 0.0 mm 0 W/m2
05:25 12.7 °C 12.1 °C 1009.1 hPa Calm   1.6 km/h 96% 0.0 mm 0 W/m2
05:30 12.7 °C 12.1 °C 1009.1 hPa Calm     96% 0.0 mm 0 W/m2
05:36 12.7 °C 12.1 °C 1009.1 hPa Calm   1.6 km/h 96% 0.0 mm 0 W/m2
05:41 12.6 °C 12 °C 1009.1 hPa Calm   3.2 km/h 96% 0.0 mm 0 W/m2
05:46 12.6 °C 12 °C 1009.1 hPa Calm   1.6 km/h 96% 0.0 mm 0 W/m2
05:51 12.6 °C 12 °C 1009.1 hPa Calm     96% 0.0 mm 0 W/m2
05:56 12.6 °C 12.1 °C 1009.1 hPa Calm     97% 0.0 mm 5 W/m2
06:01 12.7 °C 12.2 °C 1009.1 hPa Calm     97% 0.0 mm 7 W/m2
06:06 12.7 °C 12.2 °C 1009.1 hPa Calm     97% 0.0 mm 9 W/m2
06:11 12.7 °C 12.2 °C 1009.1 hPa Calm     97% 0.0 mm 11 W/m2
06:16 12.7 °C 12.2 °C 1009.1 hPa Calm   1.6 km/h 97% 0.0 mm 14 W/m2
06:21 12.7 °C 12.2 °C 1009.1 hPa Calm     97% 0.0 mm 18 W/m2
06:26 12.7 °C 12.2 °C 1009.1 hPa Calm   1.6 km/h 97% 0.0 mm 23 W/m2
06:31 12.7 °C 12.2 °C 1009.1 hPa Calm     97% 0.0 mm 23 W/m2
06:36 12.8 °C 12.3 °C 1009.1 hPa Calm     97% 0.0 mm 23 W/m2
06:41 12.8 °C 12.3 °C 1009.1 hPa Calm     97% 0.0 mm 23 W/m2
06:46 12.8 °C 12.3 °C 1009.1 hPa Calm     97% 0.0 mm 25 W/m2
06:51 12.9 °C 12.4 °C 1009.1 hPa Calm   1.6 km/h 97% 0.0 mm 30 W/m2
06:56 12.9 °C 12.4 °C 1009.1 hPa Calm   1.6 km/h 97% 0.0 mm 37 W/m2
07:01 13 °C 12.5 °C 1009.1 hPa Calm     97% 0.0 mm 51 W/m2
07:06 13.1 °C 12.6 °C 1009.1 hPa Calm   3.2 km/h 97% 0.0 mm 63 W/m2
07:11 13.1 °C 12.6 °C 1009.1 hPa Calm   1.6 km/h 97% 0.0 mm 70 W/m2
07:16 13.1 °C 12.6 °C 1009.1 hPa Calm   3.2 km/h 97% 0.0 mm 70 W/m2
07:21 13.2 °C 12.7 °C 1009.1 hPa Calm     97% 0.0 mm 81 W/m2
07:26 13.3 °C 12.8 °C 1009.1 hPa Calm     97% 0.0 mm 97 W/m2
07:31 13.4 °C 12.9 °C 1009.1 hPa Calm     97% 0.0 mm 111 W/m2
07:36 13.5 °C 13 °C 1009.1 hPa Calm     97% 0.0 mm 134 W/m2
07:41 13.7 °C 13.2 °C 1009.1 hPa Calm     97% 0.0 mm 141 W/m2
07:46 13.8 °C 13.3 °C 1009.1 hPa Calm     97% 0.0 mm 142 W/m2
07:51 13.9 °C 13.4 °C 1009.1 hPa Calm     97% 0.0 mm 137 W/m2
07:56 14.1 °C 13.6 °C 1009.1 hPa ESE 1.4 km/h 1.6 km/h 97% 0.0 mm 121 W/m2
08:01 13.9 °C 13.4 °C 1009.1 hPa Calm   1.6 km/h 97% 0.0 mm 123 W/m2
08:06 13.9 °C 13.3 °C 1009.1 hPa Calm   3.2 km/h 96% 0.0 mm 171 W/m2
08:11 14.1 °C 13.5 °C 1009.1 hPa ENE 1.4 km/h 3.2 km/h 96% 0.0 mm 160 W/m2
08:16 14.2 °C 13.6 °C 1009.1 hPa Calm   4.8 km/h 96% 0.0 mm 202 W/m2
08:21 14.3 °C 13.7 °C 1009.1 hPa Calm   3.2 km/h 96% 0.0 mm 139 W/m2
08:26 14.4 °C 13.4 °C 1009.1 hPa ENE 1.4 km/h 6.4 km/h 94% 0.0 mm 149 W/m2
08:31 14.4 °C 13.4 °C 1009.1 hPa Calm   3.2 km/h 94% 0.0 mm 167 W/m2
08:36 14.6 °C 13.5 °C 1009.1 hPa East 1.4 km/h 8 km/h 93% 0.0 mm 185 W/m2
08:41 14.7 °C 13.6 °C 1009.5 hPa ENE 1.4 km/h 1.6 km/h 93% 0.0 mm 162 W/m2
08:46 14.8 °C 13.3 °C 1009.5 hPa NNE 3.2 km/h 8 km/h 91% 0.0 mm 120 W/m2
08:51 14.7 °C 13.2 °C 1009.5 hPa East 1.4 km/h 3.2 km/h 91% 0.0 mm 120 W/m2
08:56 14.7 °C 13.1 °C 1009.5 hPa Calm   3.2 km/h 90% 0.0 mm 121 W/m2
09:01 14.7 °C 13.1 °C 1009.5 hPa North 3.2 km/h 3.2 km/h 90% 0.0 mm 139 W/m2
09:06 14.8 °C 13.2 °C 1009.5 hPa Calm   1.6 km/h 90% 0.0 mm 165 W/m2
09:11 14.8 °C 13.3 °C 1009.1 hPa Calm   3.2 km/h 91% 0.0 mm 232 W/m2
09:16 14.9 °C 13.3 °C 1009.1 hPa ESE 1.4 km/h 3.2 km/h 90% 0.0 mm 246 W/m2
09:21 15.1 °C 13.5 °C 1009.1 hPa Calm   3.2 km/h 90% 0.0 mm 255 W/m2
09:26 15.2 °C 13.2 °C 1009.1 hPa Calm   1.6 km/h 88% 0.0 mm 244 W/m2
09:31 15.3 °C 13.3 °C 1009.1 hPa NE 3.2 km/h 3.2 km/h 88% 0.0 mm 278 W/m2
09:36 15.5 °C 13.3 °C 1009.1 hPa East 4.7 km/h 8 km/h 87% 0.0 mm 271 W/m2
09:41 15.6 °C 13.6 °C 1009.1 hPa ENE 1.4 km/h 3.2 km/h 88% 0.0 mm 264 W/m2
09:46 15.7 °C 13.5 °C 1009.1 hPa ESE 4.7 km/h 4.8 km/h 87% 0.0 mm 253 W/m2
09:51 15.8 °C 13.5 °C 1009.1 hPa ENE 3.2 km/h 4.8 km/h 86% 0.0 mm 279 W/m2
09:56 15.8 °C 13.5 °C 1009.1 hPa NE 1.4 km/h 8 km/h 86% 0.0 mm 334 W/m2
10:01 16 °C 13.5 °C 1009.1 hPa Calm   1.6 km/h 85% 0.0 mm 359 W/m2
10:06 16.2 °C 13.7 °C 1009.1 hPa Calm   8 km/h 85% 0.0 mm 355 W/m2
10:11 16.3 °C 13.4 °C 1009.1 hPa ENE 1.4 km/h 3.2 km/h 83% 0.0 mm 378 W/m2
10:16 16.4 °C 13.7 °C 1009.1 hPa East 4.7 km/h 6.4 km/h 84% 0.0 mm 415 W/m2
10:21 16.4 °C 13.1 °C 1009.1 hPa ESE 3.2 km/h 6.4 km/h 81% 0.0 mm 343 W/m2
10:27 16.5 °C 13.2 °C 1009.1 hPa NE 1.4 km/h 3.2 km/h 81% 0.0 mm 348 W/m2
10:32 16.6 °C 13.1 °C 1009.1 hPa South 1.4 km/h 3.2 km/h 80% 0.0 mm 399 W/m2
10:37 16.7 °C 13.2 °C 1008.8 hPa ENE 7.9 km/h 8 km/h 80% 0.0 mm 476 W/m2
10:42 16.8 °C 13.3 °C 1008.8 hPa NE 4.7 km/h 4.8 km/h 80% 0.0 mm 410 W/m2
10:47 16.9 °C 13.2 °C 1008.8 hPa ESE 3.2 km/h 4.8 km/h 79% 0.0 mm 443 W/m2
10:52 17.1 °C 13.8 °C 1008.8 hPa Calm   3.2 km/h 81% 0.0 mm 434 W/m2
10:57 17.2 °C 13.3 °C 1008.8 hPa East 3.2 km/h 4.8 km/h 78% 0.0 mm 455 W/m2
11:02 17.4 °C 13.3 °C 1008.8 hPa NE 4.7 km/h 14.5 km/h 77% 0.0 mm 492 W/m2
11:07 17.6 °C 13.5 °C 1008.8 hPa SSE 6.4 km/h 6.4 km/h 77% 0.0 mm 531 W/m2
11:12 17.7 °C 13.2 °C 1008.5 hPa ESE 1.4 km/h 14.5 km/h 75% 0.0 mm 555 W/m2
11:17 18 °C 13.7 °C 1008.5 hPa ENE 4.7 km/h 6.4 km/h 76% 0.0 mm 735 W/m2
11:22 18.4 °C 14.1 °C 1008.5 hPa Calm   9.7 km/h 76% 0.0 mm 963 W/m2
11:27 18.6 °C 13.7 °C 1008.5 hPa SE 4.7 km/h 6.4 km/h 73% 0.0 mm 780 W/m2
11:32 18.7 °C 13.8 °C 1008.5 hPa Calm   3.2 km/h 73% 0.0 mm 628 W/m2
11:37 18.8 °C 13.6 °C 1008.5 hPa NW 3.2 km/h 4.8 km/h 72% 0.0 mm 974 W/m2
11:42 19 °C 13.8 °C 1008.5 hPa ENE 1.4 km/h 3.2 km/h 72% 0.0 mm 942 W/m2
11:47 19.3 °C 13.7 °C 1008.5 hPa ESE 3.2 km/h 4.8 km/h 70% 0.0 mm 821 W/m2
11:52 19.4 °C 13.6 °C 1008.5 hPa ENE 4.7 km/h 12.9 km/h 69% 0.0 mm 979 W/m2
11:57 19.8 °C 13.7 °C 1008.5 hPa ENE 4.7 km/h 9.7 km/h 68% 0.0 mm 953 W/m2
12:02 19.9 °C 12.9 °C 1008.5 hPa East 3.2 km/h 4.8 km/h 64% 0.0 mm 1005 W/m2
12:07 19.9 °C 13.1 °C 1008.5 hPa Calm   3.2 km/h 65% 0.0 mm 283 W/m2
12:12 19.9 °C 13.1 °C 1008.1 hPa NE 1.4 km/h 4.8 km/h 65% 0.0 mm 211 W/m2
12:18 19.7 °C 12.7 °C 1008.1 hPa NW 1.4 km/h 3.2 km/h 64% 0.0 mm 229 W/m2
12:23 19.5 °C 13 °C 1008.1 hPa NE 4.7 km/h 4.8 km/h 66% 0.0 mm 186 W/m2
12:28 19.3 °C 12.6 °C 1008.1 hPa ENE 3.2 km/h 6.4 km/h 65% 0.0 mm 283 W/m2
12:33 19 °C 12.7 °C 1008.1 hPa SE 3.2 km/h 6.4 km/h 67% 0.0 mm 267 W/m2
12:38 18.9 °C 13.5 °C 1008.1 hPa Calm   1.6 km/h 71% 0.0 mm 267 W/m2
12:43 19 °C 13.2 °C 1008.1 hPa ESE 3.2 km/h 4.8 km/h 69% 0.0 mm 287 W/m2
12:48 19.4 °C 13.1 °C 1008.1 hPa East 6.4 km/h 19.3 km/h 67% 0.0 mm 1099 W/m2
12:53 19.7 °C 13.2 °C 1008.1 hPa Calm   4.8 km/h 66% 0.0 mm 274 W/m2
12:58 19.7 °C 13.2 °C 1007.8 hPa Calm   19.3 km/h 66% 0.0 mm 287 W/m2
13:03 19.8 °C 13 °C 1007.8 hPa Calm   1.6 km/h 65% 0.0 mm 1035 W/m2
13:08 20 °C 13.2 °C 1007.8 hPa East 3.2 km/h 11.3 km/h 65% 0.0 mm 1056 W/m2
13:13 20.2 °C 13.6 °C 1007.8 hPa WNW 6.4 km/h 6.4 km/h 66% 0.0 mm 1032 W/m2
13:18 20.4 °C 13.8 °C 1007.8 hPa NE 4.7 km/h 9.7 km/h 66% 0.0 mm 1018 W/m2
13:23 20.6 °C 14 °C 1007.8 hPa East 7.9 km/h 8 km/h 66% 0.0 mm 1000 W/m2
13:28 20.6 °C 12.8 °C 1007.8 hPa NE 1.4 km/h 16.1 km/h 61% 0.0 mm 954 W/m2
13:33 20.6 °C 12.8 °C 1007.8 hPa ESE 6.4 km/h 11.3 km/h 61% 0.0 mm 990 W/m2
13:38 20.5 °C 12.7 °C 1007.5 hPa NE 3.2 km/h 16.1 km/h 61% 0.0 mm 1028 W/m2
13:43 20.4 °C 12.1 °C 1007.5 hPa East 1.4 km/h 6.4 km/h 59% 0.0 mm 237 W/m2
13:48 20.1 °C 12.3 °C 1007.5 hPa NW 1.4 km/h 9.7 km/h 61% 0.0 mm 214 W/m2
13:53 19.9 °C 12.2 °C 1007.5 hPa NE 1.4 km/h 3.2 km/h 61% 0.0 mm 301 W/m2
13:58 20.2 °C 12.7 °C 1007.5 hPa ENE 6.4 km/h 6.4 km/h 62% 0.0 mm 933 W/m2
14:03 20.7 °C 13.4 °C 1007.5 hPa ENE 4.7 km/h 12.9 km/h 63% 0.0 mm 974 W/m2
14:08 21.1 °C 12.5 °C 1007.5 hPa NE 4.7 km/h 16.1 km/h 58% 0.0 mm 1023 W/m2
14:13 20.8 °C 12.5 °C 1007.5 hPa NE 6.4 km/h 6.4 km/h 59% 0.0 mm 258 W/m2
14:18 20.9 °C 12.8 °C 1007.5 hPa NNW 1.4 km/h 14.5 km/h 60% 0.0 mm 1109 W/m2
14:23 21 °C 12.9 °C 1007.5 hPa NE 6.4 km/h 9.7 km/h 60% 0.0 mm 260 W/m2
14:28 20.8 °C 13 °C 1007.5 hPa West 6.4 km/h 12.9 km/h 61% 0.0 mm 260 W/m2
14:33 20.6 °C 12.8 °C 1007.5 hPa ENE 7.9 km/h 8 km/h 61% 0.0 mm 279 W/m2
14:38 20.6 °C 13.1 °C 1007.5 hPa ENE 4.7 km/h 6.4 km/h 62% 0.0 mm 288 W/m2
14:43 20.5 °C 12.7 °C 1007.5 hPa East 6.4 km/h 11.3 km/h 61% 0.0 mm 311 W/m2
14:48 20.2 °C 12.7 °C 1007.5 hPa ENE 6.4 km/h 14.5 km/h 62% 0.0 mm 278 W/m2
14:53 20 °C 12.7 °C 1007.5 hPa East 1.4 km/h 6.4 km/h 63% 0.0 mm 153 W/m2
14:58 19.9 °C 12.6 °C 1007.5 hPa SE 6.4 km/h 14.5 km/h 63% 0.0 mm 139 W/m2
15:03 19.7 °C 12.7 °C 1007.5 hPa NE 3.2 km/h 11.3 km/h 64% 0.0 mm 134 W/m2
15:08 19.5 °C 13 °C 1007.5 hPa SE 1.4 km/h 14.5 km/h 66% 0.0 mm 139 W/m2
15:13 19.4 °C 12.4 °C 1007.5 hPa ESE 1.4 km/h 8 km/h 64% 0.0 mm 156 W/m2
15:18 19.4 °C 12.4 °C 1007.5 hPa NE 3.2 km/h 11.3 km/h 64% 0.0 mm 188 W/m2
15:23 19.5 °C 12.7 °C 1007.5 hPa ENE 3.2 km/h 6.4 km/h 65% 0.0 mm 216 W/m2
15:28 19.6 °C 12.6 °C 1007.5 hPa NNE 1.4 km/h 6.4 km/h 64% 0.0 mm 301 W/m2
15:34 19.9 °C 13.6 °C 1007.5 hPa East 6.4 km/h 8 km/h 67% 0.0 mm 301 W/m2
15:39 20.2 °C 13.2 °C 1007.5 hPa NE 4.7 km/h 12.9 km/h 64% 0.0 mm 299 W/m2
15:44 20.1 °C 12.8 °C 1007.5 hPa ENE 6.4 km/h 14.5 km/h 63% 0.0 mm 193 W/m2
15:49 19.9 °C 13.1 °C 1007.5 hPa ESE 1.4 km/h 3.2 km/h 65% 0.0 mm 214 W/m2
15:54 19.9 °C 13.4 °C 1007.5 hPa East 4.7 km/h 14.5 km/h 66% 0.0 mm 218 W/m2
15:59 19.8 °C 13 °C 1007.5 hPa ENE 1.4 km/h 3.2 km/h 65% 0.0 mm 253 W/m2
16:04 19.8 °C 13.3 °C 1007.1 hPa East 3.2 km/h 6.4 km/h 66% 0.0 mm 285 W/m2
16:09 19.9 °C 13.6 °C 1007.5 hPa East 4.7 km/h 4.8 km/h 67% 0.0 mm 292 W/m2
16:14 19.9 °C 13.4 °C 1007.1 hPa SE 1.4 km/h 4.8 km/h 66% 0.0 mm 306 W/m2
16:19 20 °C 13.5 °C 1007.5 hPa East 1.4 km/h 9.7 km/h 66% 0.0 mm 308 W/m2
16:24 19.9 °C 13.4 °C 1007.1 hPa East 4.7 km/h 11.3 km/h 66% 0.0 mm 272 W/m2
16:29 19.9 °C 13.6 °C 1007.1 hPa East 4.7 km/h 6.4 km/h 67% 0.0 mm 357 W/m2
16:34 20.1 °C 14 °C 1007.1 hPa NE 4.7 km/h 11.3 km/h 68% 0.0 mm 886 W/m2
16:39 20.5 °C 13.7 °C 1007.1 hPa NNW 4.7 km/h 11.3 km/h 65% 0.0 mm 443 W/m2
16:44 20.7 °C 14.1 °C 1006.8 hPa ESE 1.4 km/h 6.4 km/h 66% 0.0 mm 422 W/m2
16:49 20.7 °C 13.9 °C 1006.8 hPa ENE 3.2 km/h 4.8 km/h 65% 0.0 mm 209 W/m2
16:54 20.5 °C 13.2 °C 1006.8 hPa ENE 1.4 km/h 11.3 km/h 63% 0.0 mm 243 W/m2
16:59 20.6 °C 13.6 °C 1006.8 hPa NE 4.7 km/h 8 km/h 64% 0.0 mm 754 W/m2
17:04 20.8 °C 13.3 °C 1006.8 hPa SW 3.2 km/h 19.3 km/h 62% 0.0 mm 654 W/m2
17:09 21.1 °C 13.5 °C 1006.8 hPa SE 7.9 km/h 11.3 km/h 62% 0.0 mm 638 W/m2
17:15 21.2 °C 13.4 °C 1006.8 hPa SSE 6.4 km/h 17.7 km/h 61% 0.0 mm 619 W/m2
17:20 21.3 °C 13.2 °C 1006.8 hPa NE 7.9 km/h 12.9 km/h 60% 0.0 mm 613 W/m2
17:25 21.4 °C 13.1 °C 1006.8 hPa ENE 3.2 km/h 16.1 km/h 59% 0.0 mm 619 W/m2
17:30 21.4 °C 13.3 °C 1006.8 hPa NE 9.7 km/h 9.7 km/h 60% 0.0 mm 592 W/m2
17:35 21.6 °C 13.2 °C 1006.8 hPa East 16.3 km/h 16.1 km/h 59% 0.0 mm 121 W/m2
17:40 21.4 °C 12.5 °C 1006.8 hPa ESE 1.4 km/h 8 km/h 57% 0.0 mm 172 W/m2
17:45 21.4 °C 12.8 °C 1006.4 hPa ENE 3.2 km/h 12.9 km/h 58% 0.0 mm 550 W/m2
17:50 21.3 °C 13.2 °C 1006.4 hPa ENE 4.7 km/h 11.3 km/h 60% 0.0 mm 552 W/m2
17:55 21.6 °C 13.2 °C 1006.4 hPa SW 3.2 km/h 8 km/h 59% 0.0 mm 554 W/m2
18:00 21.6 °C 13.2 °C 1006.4 hPa NE 3.2 km/h 8 km/h 59% 0.0 mm 127 W/m2
18:05 21.3 °C 13 °C 1006.4 hPa North 3.2 km/h 11.3 km/h 59% 0.0 mm 531 W/m2
18:10 21.3 °C 13.2 °C 1006.4 hPa East 4.7 km/h 4.8 km/h 60% 0.0 mm 492 W/m2
18:15 21.4 °C 13.1 °C 1006.4 hPa ENE 11.1 km/h 16.1 km/h 59% 0.0 mm 504 W/m2
18:20 21.3 °C 13.2 °C 1006.4 hPa SSE 3.2 km/h 14.5 km/h 60% 0.0 mm 102 W/m2
18:25 21.1 °C 13 °C 1006.4 hPa NE 4.7 km/h 16.1 km/h 60% 0.0 mm 461 W/m2
18:30 21.2 °C 13.6 °C 1006.4 hPa ESE 4.7 km/h 6.4 km/h 62% 0.0 mm 434 W/m2
18:35 21.2 °C 13.4 °C 1006.1 hPa NNE 1.4 km/h 11.3 km/h 61% 0.0 mm 102 W/m2
18:40 20.8 °C 13.5 °C 1006.1 hPa North 4.7 km/h 4.8 km/h 63% 0.0 mm 91 W/m2
18:45 20.8 °C 13.7 °C 1006.1 hPa East 4.7 km/h 6.4 km/h 64% 0.0 mm 84 W/m2
18:50 20.7 °C 13.2 °C 1006.1 hPa East 11.3 km/h 11.3 km/h 62% 0.0 mm 107 W/m2
18:55 20.6 °C 13.3 °C 1006.1 hPa Calm   6.4 km/h 63% 0.0 mm 250 W/m2
19:00 20.6 °C 13.1 °C 1006.4 hPa NNE 4.7 km/h 19.3 km/h 62% 0.0 mm 260 W/m2
19:05 20.7 °C 12.4 °C 1006.4 hPa North 3.2 km/h 6.4 km/h 59% 0.0 mm 283 W/m2
19:10 20.8 °C 12.5 °C 1006.4 hPa ESE 3.2 km/h 9.7 km/h 59% 0.0 mm 297 W/m2
19:15 20.8 °C 12.7 °C 1006.4 hPa SE 6.4 km/h 11.3 km/h 60% 0.0 mm 302 W/m2
19:20 20.7 °C 12.9 °C 1006.4 hPa NE 3.2 km/h 3.2 km/h 61% 0.0 mm 290 W/m2
19:25 20.9 °C 12.8 °C 1006.4 hPa North 7.9 km/h 8 km/h 60% 0.0 mm 276 W/m2
19:30 20.9 °C 12.8 °C 1006.4 hPa NNE 3.2 km/h 9.7 km/h 60% 0.0 mm 255 W/m2
19:35 20.9 °C 13.1 °C 1006.1 hPa NNE 3.2 km/h 6.4 km/h 61% 0.0 mm 227 W/m2
19:41 20.9 °C 13.3 °C 1006.4 hPa NE 1.4 km/h 3.2 km/h 62% 0.0 mm 192 W/m2
19:46 20.9 °C 13.1 °C 1006.4 hPa East 3.2 km/h 11.3 km/h 61% 0.0 mm 174 W/m2
19:51 20.9 °C 13.1 °C 1006.4 hPa ESE 3.2 km/h 9.7 km/h 61% 0.0 mm 169 W/m2
19:56 20.9 °C 13.1 °C 1006.4 hPa SE 4.7 km/h 8 km/h 61% 0.0 mm 179 W/m2
20:01 20.8 °C 13.3 °C 1006.4 hPa ENE 7.9 km/h 8 km/h 62% 0.0 mm 163 W/m2
20:06 20.8 °C 13 °C 1006.4 hPa NE 3.2 km/h 14.5 km/h 61% 0.0 mm 141 W/m2
20:11 20.6 °C 13.1 °C 1006.4 hPa NE 6.4 km/h 12.9 km/h 62% 0.0 mm 134 W/m2
20:16 20.4 °C 13.4 °C 1006.4 hPa East 1.4 km/h 6.4 km/h 64% 0.0 mm 121 W/m2
20:21 20.3 °C 13.3 °C 1006.4 hPa Calm   3.2 km/h 64% 0.0 mm 105 W/m2
20:26 20.3 °C 13.3 °C 1006.4 hPa ENE 3.2 km/h 8 km/h 64% 0.0 mm 105 W/m2
20:31 20.2 °C 13.2 °C 1006.4 hPa ESE 1.4 km/h 8 km/h 64% 0.0 mm 90 W/m2
20:36 20.2 °C 13.2 °C 1006.4 hPa ENE 1.4 km/h 11.3 km/h 64% 0.0 mm 77 W/m2
20:41 20.1 °C 13.3 °C 1006.4 hPa East 1.4 km/h 8 km/h 65% 0.0 mm 77 W/m2
20:46 20.1 °C 13.3 °C 1006.4 hPa SSE 1.4 km/h 3.2 km/h 65% 0.0 mm 58 W/m2
20:51 19.9 °C 13.4 °C 1006.4 hPa NE 1.4 km/h 4.8 km/h 66% 0.0 mm 51 W/m2
20:56 19.7 °C 12.9 °C 1006.4 hPa East 1.4 km/h 4.8 km/h 65% 0.0 mm 42 W/m2
21:01 19.6 °C 12.8 °C 1006.4 hPa East 1.4 km/h 6.4 km/h 65% 0.0 mm 37 W/m2
21:06 19.4 °C 12.7 °C 1006.4 hPa ENE 9.7 km/h 9.7 km/h 65% 0.0 mm 28 W/m2
21:11 19.2 °C 12.9 °C 1006.4 hPa Calm   4.8 km/h 67% 0.0 mm 16 W/m2
21:16 18.8 °C 12.5 °C 1006.4 hPa NE 3.2 km/h 4.8 km/h 67% 0.0 mm 14 W/m2
21:21 18.6 °C 12.8 °C 1006.4 hPa Calm     69% 0.0 mm 12 W/m2
21:26 18.3 °C 12.3 °C 1006.4 hPa ESE 3.2 km/h 6.4 km/h 68% 0.0 mm 11 W/m2
21:31 18.1 °C 12.3 °C 1006.4 hPa NE 3.2 km/h 3.2 km/h 69% 0.0 mm 7 W/m2
21:36 17.9 °C 12.1 °C 1006.8 hPa East 4.7 km/h 14.5 km/h 69% 0.0 mm 5 W/m2
21:42 17.8 °C 12 °C 1006.8 hPa ENE 1.4 km/h 8 km/h 69% 0.0 mm 5 W/m2
21:47 17.7 °C 12.4 °C 1006.8 hPa Calm   14.5 km/h 71% 0.0 mm 0 W/m2
21:52 17.4 °C 12.1 °C 1006.8 hPa Calm   1.6 km/h 71% 0.0 mm 0 W/m2
21:57 17.2 °C 12.1 °C 1006.8 hPa NE 3.2 km/h 9.7 km/h 72% 0.0 mm 0 W/m2
22:02 17.1 °C 12.2 °C 1006.8 hPa East 1.4 km/h 1.6 km/h 73% 0.0 mm 0 W/m2
22:07 16.9 °C 12.2 °C 1007.1 hPa SE 3.2 km/h 9.7 km/h 74% 0.0 mm 0 W/m2
22:12 16.8 °C 12.1 °C 1007.1 hPa Calm   1.6 km/h 74% 0.0 mm 0 W/m2
22:17 16.7 °C 12.2 °C 1007.1 hPa ESE 3.2 km/h 11.3 km/h 75% 0.0 mm 0 W/m2
22:22 16.5 °C 12.1 °C 1007.1 hPa ENE 1.4 km/h 4.8 km/h 75% 0.0 mm 0 W/m2
22:27 16.4 °C 12.2 °C 1007.1 hPa Calm   9.7 km/h 76% 0.0 mm 0 W/m2
22:32 16.3 °C 12.3 °C 1007.1 hPa Calm   3.2 km/h 77% 0.0 mm 0 W/m2
22:37 16.3 °C 12.3 °C 1007.1 hPa ESE 1.4 km/h 9.7 km/h 77% 0.0 mm 0 W/m2
22:42 16.2 °C 12.2 °C 1007.5 hPa East 1.4 km/h 3.2 km/h 77% 0.0 mm 0 W/m2
22:47 16.2 °C 12.2 °C 1007.1 hPa Calm   4.8 km/h 77% 0.0 mm 0 W/m2
22:52 16.2 °C 12.4 °C 1007.1 hPa ENE 1.4 km/h 6.4 km/h 78% 0.0 mm 0 W/m2
22:57 16.2 °C 12.4 °C 1007.1 hPa NE 1.4 km/h 4.8 km/h 78% 0.0 mm 0 W/m2
23:02 16.1 °C 12.5 °C 1007.1 hPa East 4.7 km/h 4.8 km/h 79% 0.0 mm 0 W/m2
23:07 15.9 °C 12.3 °C 1007.5 hPa East 9.7 km/h 9.7 km/h 79% 0.0 mm 0 W/m2
23:12 15.9 °C 12.3 °C 1007.5 hPa Calm   6.4 km/h 79% 0.0 mm 0 W/m2
23:17 15.8 °C 12.4 °C 1007.1 hPa Calm   4.8 km/h 80% 0.0 mm 0 W/m2
23:22 15.8 °C 12.4 °C 1007.1 hPa Calm   3.2 km/h 80% 0.0 mm 0 W/m2
23:27 15.7 °C 12.3 °C 1007.1 hPa Calm   1.6 km/h 80% 0.0 mm 0 W/m2
23:32 15.5 °C 12.3 °C 1007.1 hPa Calm   1.6 km/h 81% 0.0 mm 0 W/m2
23:37 15.3 °C 12.1 °C 1007.1 hPa Calm     81% 0.0 mm 0 W/m2
23:42 15.2 °C 12.1 °C 1007.1 hPa Calm     82% 0.0 mm 0 W/m2
23:47 15 °C 12.1 °C 1007.1 hPa Calm   1.6 km/h 83% 0.0 mm 0 W/m2
23:52 14.8 °C 12.1 °C 1007.1 hPa Calm     84% 0.0 mm 0 W/m2
23:57 14.7 °C 12 °C 1007.1 hPa Calm     84% 0.0 mm 0 W/m2
Juneau County Weather
Compliments of Weather Underground - 4 mb